createdAt,value
2023-03-08T00:00:35.183Z,99.02
2023-03-08T00:08:45.768Z,99.02
2023-03-08T00:09:46.274Z,99.02
2023-03-08T00:10:46.296Z,98.73
2023-03-08T00:11:46.812Z,98.83
2023-03-08T00:15:50.161Z,99.02
2023-03-08T00:16:50.192Z,98.54
2023-03-08T00:17:50.815Z,98.64
2023-03-08T00:18:50.207Z,99.21
2023-03-08T00:19:50.284Z,99.40
2023-03-08T00:20:50.263Z,99.99
2023-03-08T00:21:50.276Z,99.99
2023-03-08T00:22:48.455Z,99.99
2023-03-08T00:23:48.519Z,99.99
2023-03-08T00:24:48.546Z,99.87
2023-03-08T00:25:48.619Z,99.99
2023-03-08T00:26:48.632Z,99.87
2023-03-08T00:27:48.681Z,99.99
2023-03-08T00:28:50.521Z,99.99
2023-03-08T00:29:48.790Z,99.99
2023-03-08T00:30:48.805Z,99.99
2023-03-08T00:31:50.594Z,99.99
2023-03-08T00:32:48.897Z,99.99
2023-03-08T00:33:48.948Z,99.99
2023-03-08T00:34:49.006Z,99.99
2023-03-08T00:35:49.042Z,99.99
2023-03-08T00:36:49.061Z,99.99
2023-03-08T00:37:49.118Z,99.99
2023-03-08T00:38:49.181Z,99.99
2023-03-08T00:39:49.212Z,99.99
2023-03-08T00:40:49.237Z,99.99
2023-03-08T00:41:49.311Z,99.99
2023-03-08T00:42:49.328Z,99.99
2023-03-08T00:43:49.373Z,99.99
2023-03-08T00:44:49.412Z,99.99
2023-03-08T00:45:52.910Z,99.99
2023-03-08T00:46:50.446Z,99.99
2023-03-08T00:47:49.546Z,99.99
2023-03-08T00:48:49.588Z,99.99
2023-03-08T00:49:49.625Z,99.99
2023-03-08T00:50:50.489Z,99.99
2023-03-08T00:51:49.745Z,99.99
2023-03-08T00:52:50.533Z,99.99
2023-03-08T00:53:50.554Z,99.99
2023-03-08T00:54:50.581Z,99.99
2023-03-08T00:55:50.818Z,99.99
2023-03-08T00:56:50.664Z,99.99
2023-03-08T00:57:50.822Z,99.99
2023-03-08T00:58:50.051Z,99.99
2023-03-08T00:59:50.060Z,99.40
2023-03-08T01:00:50.165Z,99.68
2023-03-08T01:01:50.147Z,99.97
2023-03-08T01:02:50.234Z,99.99
2023-03-08T01:03:50.233Z,99.49
2023-03-08T01:04:50.313Z,99.87
2023-03-08T01:05:50.357Z,98.83
2023-03-08T01:06:50.371Z,98.83
2023-03-08T01:07:50.408Z,99.97
2023-03-08T01:08:50.489Z,99.77
2023-03-08T01:09:50.496Z,99.02
2023-03-08T01:10:50.564Z,99.49
2023-03-08T01:11:51.323Z,99.40
2023-03-08T01:12:50.636Z,99.11
2023-03-08T01:13:50.665Z,99.40
2023-03-08T01:14:50.717Z,98.92
2023-03-08T01:15:50.765Z,99.58
2023-03-08T01:16:50.822Z,99.21
2023-03-08T01:17:50.852Z,99.99
2023-03-08T01:18:50.921Z,99.97
2023-03-08T01:19:50.937Z,99.77
2023-03-08T01:20:50.971Z,99.99
2023-03-08T01:21:51.026Z,99.99
2023-03-08T01:22:51.058Z,99.99
2023-03-08T01:23:51.138Z,99.99
2023-03-08T01:24:51.151Z,99.99
2023-03-08T01:25:51.222Z,99.99
2023-03-08T01:26:57.820Z,99.99
2023-03-08T01:27:51.287Z,99.99
2023-03-08T01:28:51.318Z,99.99
2023-03-08T01:29:51.398Z,99.99
2023-03-08T01:30:51.406Z,99.99
2023-03-08T01:31:51.461Z,99.99
2023-03-08T01:32:51.496Z,99.97
2023-03-08T01:33:51.578Z,99.77
2023-03-08T01:34:51.577Z,99.97
2023-03-08T01:35:51.661Z,99.97
2023-03-08T01:36:51.666Z,99.99
2023-03-08T01:37:51.752Z,99.87
2023-03-08T01:38:51.767Z,99.40
2023-03-08T01:39:51.805Z,99.58
2023-03-08T01:40:51.840Z,98.73
2023-03-08T01:41:51.890Z,98.83
2023-03-08T01:42:51.953Z,99.49
2023-03-08T01:43:51.977Z,99.49
2023-03-08T01:44:52.010Z,99.99
2023-03-08T01:45:52.055Z,99.99
2023-03-08T01:46:52.139Z,99.99
2023-03-08T01:47:52.144Z,99.87
2023-03-08T01:48:52.193Z,99.30
2023-03-08T01:49:52.230Z,99.99
2023-03-08T01:50:55.450Z,99.49
2023-03-08T01:51:52.318Z,99.87
2023-03-08T01:52:52.375Z,99.99
2023-03-08T01:53:52.409Z,99.99
2023-03-08T01:54:55.487Z,99.99
2023-03-08T01:55:52.523Z,99.99
2023-03-08T01:56:52.540Z,99.99
2023-03-08T01:57:52.577Z,99.99
2023-03-08T01:58:52.630Z,99.99
2023-03-08T01:59:52.669Z,99.99
2023-03-08T02:00:52.769Z,99.99
2023-03-08T02:01:52.746Z,99.99
2023-03-08T02:02:52.800Z,99.99
2023-03-08T02:03:52.839Z,99.99
2023-03-08T02:04:52.890Z,99.99
2023-03-08T02:05:52.965Z,99.99
2023-03-08T02:06:52.980Z,99.99
2023-03-08T02:07:53.014Z,99.99
2023-03-08T02:08:53.077Z,99.99
2023-03-08T02:09:53.102Z,99.99
2023-03-08T02:10:53.178Z,99.99
2023-03-08T02:11:53.225Z,99.99
2023-03-08T02:12:53.239Z,99.99
2023-03-08T02:13:55.308Z,99.99
2023-03-08T02:14:53.330Z,99.99
2023-03-08T02:15:53.373Z,99.99
2023-03-08T02:16:53.437Z,99.99
2023-03-08T02:17:53.461Z,99.99
2023-03-08T02:18:53.499Z,99.99
2023-03-08T02:19:53.546Z,99.99
2023-03-08T02:20:53.612Z,99.99
2023-03-08T02:21:53.635Z,99.99
2023-03-08T02:22:53.677Z,99.99
2023-03-08T02:23:53.724Z,99.99
2023-03-08T02:24:53.753Z,99.99
2023-03-08T02:25:53.851Z,99.99
2023-03-08T02:26:53.847Z,99.99
2023-03-08T02:27:55.631Z,99.99
2023-03-08T02:28:53.931Z,99.99
2023-03-08T02:29:53.983Z,99.99
2023-03-08T02:30:56.841Z,99.99
2023-03-08T02:31:55.703Z,99.99
2023-03-08T02:32:54.107Z,99.99
2023-03-08T02:33:54.158Z,99.99
2023-03-08T02:34:54.196Z,99.99
2023-03-08T02:35:54.339Z,99.99
2023-03-08T02:36:54.280Z,99.99
2023-03-08T02:37:54.334Z,99.99
2023-03-08T02:38:57.337Z,99.99
2023-03-08T02:39:54.417Z,99.99
2023-03-08T02:40:55.332Z,99.99
2023-03-08T02:41:55.722Z,99.99
2023-03-08T02:42:54.540Z,99.99
2023-03-08T02:43:54.593Z,99.99
2023-03-08T02:44:55.487Z,99.99
2023-03-08T02:45:55.528Z,99.99
2023-03-08T02:46:54.720Z,99.99
2023-03-08T02:47:54.764Z,99.99
2023-03-08T02:48:54.844Z,99.99
2023-03-08T02:49:54.844Z,99.99
2023-03-08T02:50:55.661Z,99.99
2023-03-08T02:51:54.935Z,99.99
2023-03-08T02:52:54.982Z,99.99
2023-03-08T02:53:55.073Z,99.99
2023-03-08T02:54:55.770Z,99.99
2023-03-08T02:55:55.107Z,99.99
2023-03-08T02:56:55.163Z,99.99
2023-03-08T02:57:55.209Z,99.99
2023-03-08T02:58:55.282Z,99.99
2023-03-08T02:59:55.289Z,99.99
2023-03-08T03:00:55.365Z,99.99
2023-03-08T03:01:55.370Z,99.99
2023-03-08T03:02:55.422Z,99.99
2023-03-08T03:03:55.456Z,99.99
2023-03-08T03:04:56.004Z,99.99
2023-03-08T03:05:56.053Z,99.99
2023-03-08T03:06:55.597Z,99.99
2023-03-08T03:07:55.630Z,99.99
2023-03-08T03:08:55.683Z,99.99
2023-03-08T03:09:55.756Z,99.99
2023-03-08T03:10:55.796Z,99.99
2023-03-08T03:11:55.811Z,99.99
2023-03-08T03:12:55.892Z,99.99
2023-03-08T03:13:55.898Z,99.99
2023-03-08T03:14:56.275Z,99.99
2023-03-08T03:15:56.513Z,99.99
2023-03-08T03:16:56.028Z,99.99
2023-03-08T03:17:56.115Z,99.99
2023-03-08T03:18:56.391Z,99.99
2023-03-08T03:19:56.167Z,99.99
2023-03-08T03:20:56.198Z,99.99
2023-03-08T03:21:56.251Z,99.99
2023-03-08T03:22:56.284Z,99.99
2023-03-08T03:23:56.374Z,99.99
2023-03-08T03:24:56.479Z,99.99
2023-03-08T03:25:56.505Z,99.99
2023-03-08T03:26:56.463Z,99.99
2023-03-08T03:27:56.541Z,99.99
2023-03-08T03:28:56.546Z,99.99
2023-03-08T03:29:56.599Z,99.99
2023-03-08T03:30:56.651Z,99.99
2023-03-08T03:31:56.680Z,99.99
2023-03-08T03:32:56.744Z,99.99
2023-03-08T03:33:56.770Z,99.99
2023-03-08T03:34:57.325Z,99.99
2023-03-08T03:35:56.871Z,99.99
2023-03-08T03:36:56.890Z,99.99
2023-03-08T03:37:56.974Z,99.99
2023-03-08T03:38:56.975Z,99.99
2023-03-08T03:39:57.043Z,99.99
2023-03-08T03:40:57.093Z,99.99
2023-03-08T03:41:57.167Z,99.99
2023-03-08T03:42:57.153Z,99.99
2023-03-08T03:43:57.201Z,99.99
2023-03-08T03:44:57.238Z,99.99
2023-03-08T03:45:57.284Z,99.99
2023-03-08T03:46:57.364Z,99.99
2023-03-08T03:47:57.369Z,99.99
2023-03-08T03:48:57.457Z,99.99
2023-03-08T03:49:57.456Z,99.99
2023-03-08T03:51:00.849Z,99.99
2023-03-08T03:51:57.544Z,99.99
2023-03-08T03:52:57.597Z,99.99
2023-03-08T03:53:57.662Z,99.99
2023-03-08T03:54:57.683Z,99.99
2023-03-08T03:55:57.716Z,99.99
2023-03-08T03:56:57.771Z,99.99
2023-03-08T03:58:04.334Z,99.99
2023-03-08T03:58:57.888Z,99.99
2023-03-08T03:59:57.898Z,99.99
2023-03-08T04:00:57.941Z,99.99
2023-03-08T04:02:04.839Z,99.99
2023-03-08T04:02:58.119Z,99.99
2023-03-08T04:03:58.163Z,99.99
2023-03-08T04:04:58.110Z,99.99
2023-03-08T04:05:58.146Z,99.99
2023-03-08T04:07:04.856Z,99.99
2023-03-08T04:08:04.842Z,99.99
2023-03-08T04:09:04.858Z,99.99
2023-03-08T04:10:05.346Z,99.99
2023-03-08T04:11:05.350Z,99.99
2023-03-08T04:11:58.407Z,99.99
2023-03-08T04:12:58.460Z,99.99
2023-03-08T04:13:58.489Z,99.99
2023-03-08T04:14:58.544Z,99.99
2023-03-08T04:16:05.361Z,99.99
2023-03-08T04:17:05.342Z,99.99
2023-03-08T04:17:58.703Z,99.99
2023-03-08T04:19:05.346Z,99.99
2023-03-08T04:19:58.757Z,99.99
2023-03-08T04:21:01.841Z,99.99
2023-03-08T04:22:01.866Z,99.99
2023-03-08T04:22:58.879Z,99.99
2023-03-08T04:24:01.906Z,99.99
2023-03-08T04:24:58.952Z,99.99
2023-03-08T04:26:01.952Z,99.99
2023-03-08T04:26:59.041Z,99.99
2023-03-08T04:27:59.118Z,99.99
2023-03-08T04:28:59.127Z,99.99
2023-03-08T04:30:02.056Z,99.99
2023-03-08T04:31:02.074Z,99.99
2023-03-08T04:31:59.259Z,99.99
2023-03-08T04:32:59.294Z,99.99
2023-03-08T04:33:59.349Z,99.99
2023-03-08T04:34:59.396Z,99.99
2023-03-08T04:36:01.864Z,99.99
2023-03-08T04:36:59.456Z,99.99
2023-03-08T04:37:59.518Z,99.99
2023-03-08T04:38:59.574Z,99.99
2023-03-08T04:39:59.598Z,99.99
2023-03-08T04:40:59.627Z,99.99
2023-03-08T04:41:59.688Z,99.99
2023-03-08T04:42:59.713Z,99.99
2023-03-08T04:43:59.801Z,99.99
2023-03-08T04:44:59.835Z,99.99
2023-03-08T04:45:59.839Z,99.99
2023-03-08T04:46:59.922Z,99.99
2023-03-08T04:47:59.930Z,99.99
2023-03-08T04:48:59.974Z,99.99
2023-03-08T04:50:00.053Z,99.99
2023-03-08T04:51:00.065Z,99.99
2023-03-08T04:52:02.055Z,99.99
2023-03-08T04:53:02.093Z,99.99
2023-03-08T04:54:00.178Z,99.99
2023-03-08T04:55:00.260Z,99.99
2023-03-08T04:56:00.264Z,99.99
2023-03-08T04:57:00.313Z,99.99
2023-03-08T04:58:00.356Z,99.99
2023-03-08T04:59:00.397Z,99.99
2023-03-08T05:00:01.343Z,99.99
2023-03-08T05:01:02.307Z,99.99
2023-03-08T05:02:00.546Z,99.99
2023-03-08T05:03:00.570Z,99.99
2023-03-08T05:04:00.607Z,99.99
2023-03-08T05:05:00.714Z,99.99
2023-03-08T05:06:01.338Z,99.99
2023-03-08T05:07:00.742Z,99.99
2023-03-08T05:08:00.803Z,99.99
2023-03-08T05:09:02.180Z,99.99
2023-03-08T05:10:02.204Z,99.99
2023-03-08T05:11:02.224Z,99.99
2023-03-08T05:12:02.237Z,99.99
2023-03-08T05:13:02.277Z,99.99
2023-03-08T05:14:01.058Z,99.99
2023-03-08T05:15:01.074Z,99.99
2023-03-08T05:16:01.177Z,99.99
2023-03-08T05:17:02.545Z,99.99
2023-03-08T05:18:01.207Z,99.99
2023-03-08T05:19:02.225Z,99.99
2023-03-08T05:20:01.298Z,99.99
2023-03-08T05:21:01.359Z,99.99
2023-03-08T05:22:01.374Z,99.99
2023-03-08T05:23:01.422Z,99.99
2023-03-08T05:24:01.461Z,99.99
2023-03-08T05:25:01.500Z,99.99
2023-03-08T05:26:01.585Z,99.99
2023-03-08T05:27:02.250Z,99.99
2023-03-08T05:28:01.632Z,99.99
2023-03-08T05:29:01.666Z,99.99
2023-03-08T05:30:01.710Z,99.99
2023-03-08T05:31:01.785Z,99.99
2023-03-08T05:32:01.861Z,99.99
2023-03-08T05:33:01.831Z,99.99
2023-03-08T05:34:01.884Z,99.99
2023-03-08T05:35:01.925Z,99.99
2023-03-08T05:36:01.973Z,99.99
2023-03-08T05:37:02.034Z,99.99
2023-03-08T05:38:02.056Z,99.99
2023-03-08T05:39:02.108Z,99.99
2023-03-08T05:40:02.148Z,99.99
2023-03-08T05:41:02.190Z,99.99
2023-03-08T05:42:02.261Z,99.99
2023-03-08T05:43:02.842Z,99.99
2023-03-08T05:44:02.353Z,99.99
2023-03-08T05:45:02.401Z,99.99
2023-03-08T05:46:02.470Z,99.99
2023-03-08T05:47:02.441Z,99.99
2023-03-08T05:48:02.471Z,99.99
2023-03-08T05:49:02.521Z,99.99
2023-03-08T05:50:02.594Z,99.99
2023-03-08T05:51:02.611Z,99.99
2023-03-08T05:52:09.357Z,99.99
2023-03-08T05:53:02.692Z,99.99
2023-03-08T05:54:02.753Z,99.99
2023-03-08T05:55:02.803Z,99.99
2023-03-08T05:56:02.809Z,99.99
2023-03-08T05:57:02.865Z,99.99
2023-03-08T05:58:02.895Z,99.99
2023-03-08T05:59:02.952Z,99.99
2023-03-08T06:00:03.006Z,99.99
2023-03-08T06:01:03.057Z,99.99
2023-03-08T06:02:03.110Z,99.99
2023-03-08T06:03:03.153Z,99.99
2023-03-08T06:04:03.844Z,99.99
2023-03-08T06:05:03.238Z,99.99
2023-03-08T06:06:03.233Z,99.99
2023-03-08T06:07:03.294Z,99.99
2023-03-08T06:08:03.327Z,99.99
2023-03-08T06:09:06.345Z,99.99
2023-03-08T06:10:06.323Z,99.99
2023-03-08T06:11:06.895Z,99.99
2023-03-08T06:12:06.353Z,99.99
2023-03-08T06:13:03.547Z,99.99
2023-03-08T06:14:06.343Z,99.99
2023-03-08T06:15:06.390Z,99.99
2023-03-08T06:16:03.670Z,99.99
2023-03-08T06:17:06.433Z,99.99
2023-03-08T06:18:06.468Z,99.99
2023-03-08T06:19:06.890Z,99.99
2023-03-08T06:20:03.844Z,99.99
2023-03-08T06:21:06.565Z,99.99
2023-03-08T06:22:03.929Z,99.99
2023-03-08T06:23:06.609Z,99.99
2023-03-08T06:24:04.042Z,99.99
2023-03-08T06:25:04.048Z,99.99
2023-03-08T06:26:06.683Z,99.99
2023-03-08T06:27:04.172Z,99.99
2023-03-08T06:28:04.211Z,99.99
2023-03-08T06:29:04.234Z,99.99
2023-03-08T06:30:04.273Z,99.99
2023-03-08T06:31:04.380Z,99.99
2023-03-08T06:32:04.506Z,99.99
2023-03-08T06:33:07.346Z,99.99
2023-03-08T06:34:04.444Z,99.99
2023-03-08T06:35:07.347Z,99.99
2023-03-08T06:36:04.534Z,99.99
2023-03-08T06:37:04.604Z,99.99
2023-03-08T06:38:06.944Z,99.99
2023-03-08T06:39:07.348Z,99.99
2023-03-08T06:40:06.997Z,99.99
2023-03-08T06:41:07.005Z,99.99
2023-03-08T06:42:07.086Z,99.99
2023-03-08T06:43:04.829Z,99.99
2023-03-08T06:44:04.886Z,99.99
2023-03-08T06:45:07.100Z,99.99
2023-03-08T06:46:07.179Z,99.99
2023-03-08T06:47:05.042Z,99.99
2023-03-08T06:48:05.042Z,99.99
2023-03-08T06:49:05.121Z,99.99
2023-03-08T06:50:05.132Z,99.99
2023-03-08T06:51:07.252Z,99.99
2023-03-08T06:52:07.255Z,99.99
2023-03-08T06:53:05.262Z,99.99
2023-03-08T06:54:05.348Z,99.99
2023-03-08T06:55:05.353Z,99.99
2023-03-08T06:56:05.391Z,99.99
2023-03-08T06:57:07.257Z,99.99
2023-03-08T06:58:07.268Z,99.99
2023-03-08T06:59:05.559Z,99.99
2023-03-08T07:00:07.298Z,99.99
2023-03-08T07:01:05.694Z,99.99
2023-03-08T07:02:05.674Z,99.99
2023-03-08T07:03:07.373Z,99.99
2023-03-08T07:04:07.382Z,99.99
2023-03-08T07:05:07.395Z,99.99
2023-03-08T07:06:14.440Z,99.99
2023-03-08T07:07:08.457Z,99.99
2023-03-08T07:08:08.916Z,99.99
2023-03-08T07:09:14.480Z,99.99
2023-03-08T07:10:08.926Z,99.99
2023-03-08T07:11:07.516Z,99.99
2023-03-08T07:12:12.928Z,99.99
2023-03-08T07:13:07.983Z,99.99
2023-03-08T07:15:45.362Z,99.99
2023-03-08T07:16:45.366Z,99.99
2023-03-08T07:17:45.404Z,99.99
2023-03-08T07:18:45.454Z,99.99
2023-03-08T07:19:45.521Z,99.99
2023-03-08T07:20:45.547Z,99.99
2023-03-08T07:21:45.573Z,99.99
2023-03-08T07:22:45.653Z,99.99
2023-03-08T07:23:45.659Z,99.99
2023-03-08T07:24:45.708Z,99.99
2023-03-08T07:25:45.777Z,99.99
2023-03-08T07:26:45.799Z,99.99
2023-03-08T07:27:45.838Z,99.99
2023-03-08T07:28:45.886Z,99.99
2023-03-08T07:29:45.927Z,99.99
2023-03-08T07:30:45.997Z,99.99
2023-03-08T07:31:46.077Z,99.99
2023-03-08T07:32:46.157Z,99.99
2023-03-08T07:33:46.090Z,99.99
2023-03-08T07:34:46.181Z,99.99
2023-03-08T07:35:46.239Z,99.99
2023-03-08T07:36:46.259Z,99.99
2023-03-08T07:37:46.279Z,99.99
2023-03-08T07:38:46.325Z,99.99
2023-03-08T07:39:46.358Z,99.99
2023-03-08T07:40:46.422Z,99.99
2023-03-08T07:41:47.623Z,99.99
2023-03-08T07:42:46.503Z,99.99
2023-03-08T07:43:46.539Z,99.99
2023-03-08T07:44:46.586Z,99.99
2023-03-08T07:45:46.634Z,99.99
2023-03-08T07:46:46.736Z,99.99
2023-03-08T07:47:46.729Z,99.99
2023-03-08T07:48:46.792Z,99.99
2023-03-08T07:49:46.819Z,99.99
2023-03-08T07:50:46.849Z,99.99
2023-03-08T07:51:46.896Z,99.99
2023-03-08T07:52:46.935Z,99.99
2023-03-08T07:53:47.013Z,99.99
2023-03-08T07:54:47.070Z,99.99
2023-03-08T07:55:47.073Z,99.99
2023-03-08T07:56:47.109Z,99.99
2023-03-08T07:57:47.158Z,99.99
2023-03-08T07:58:47.245Z,99.99
2023-03-08T07:59:47.286Z,99.99
2023-03-08T08:00:47.314Z,99.99
2023-03-08T08:01:47.340Z,99.99
2023-03-08T08:02:47.438Z,99.99
2023-03-08T08:03:47.455Z,99.99
2023-03-08T08:04:47.472Z,99.99
2023-03-08T08:05:47.551Z,99.99
2023-03-08T08:06:47.553Z,99.99
2023-03-08T08:07:47.610Z,99.99
2023-03-08T08:08:47.645Z,99.99
2023-03-08T08:09:47.692Z,99.99
2023-03-08T08:10:47.753Z,99.99
2023-03-08T08:11:47.782Z,99.99
2023-03-08T08:12:47.818Z,99.99
2023-03-08T08:13:47.868Z,99.99
2023-03-08T08:14:47.941Z,99.99
2023-03-08T08:15:48.073Z,99.99
2023-03-08T08:16:48.006Z,99.99
2023-03-08T08:17:48.037Z,99.99
2023-03-08T08:18:48.090Z,99.99
2023-03-08T08:19:48.120Z,99.99
2023-03-08T08:20:48.200Z,99.99
2023-03-08T08:21:48.222Z,99.99
2023-03-08T08:22:48.266Z,99.99
2023-03-08T08:23:48.318Z,99.99
2023-03-08T08:24:48.351Z,99.99
2023-03-08T08:25:48.415Z,99.99
2023-03-08T08:26:48.442Z,99.99
2023-03-08T08:27:48.477Z,99.99
2023-03-08T08:28:48.528Z,99.99
2023-03-08T08:29:48.561Z,99.99
2023-03-08T08:30:48.658Z,99.99
2023-03-08T08:31:48.727Z,99.99
2023-03-08T08:32:48.836Z,99.99
2023-03-08T08:33:49.367Z,99.99
2023-03-08T08:34:48.793Z,99.99
2023-03-08T08:35:48.846Z,99.99
2023-03-08T08:36:48.922Z,99.99
2023-03-08T08:37:48.920Z,99.99
2023-03-08T08:38:48.973Z,99.99
2023-03-08T08:39:49.009Z,99.99
2023-03-08T08:40:49.058Z,99.99
2023-03-08T08:41:49.126Z,99.99
2023-03-08T08:42:49.173Z,99.99
2023-03-08T08:43:49.175Z,99.99
2023-03-08T08:44:49.237Z,99.99
2023-03-08T08:45:49.303Z,99.99
2023-03-08T08:46:49.317Z,99.99
2023-03-08T08:47:49.399Z,99.99
2023-03-08T08:48:49.404Z,99.99
2023-03-08T08:49:49.467Z,99.99
2023-03-08T08:50:49.499Z,99.99
2023-03-08T08:51:49.548Z,99.99
2023-03-08T08:52:49.661Z,99.99
2023-03-08T08:53:49.647Z,99.99
2023-03-08T08:54:49.681Z,99.99
2023-03-08T08:55:49.722Z,99.99
2023-03-08T08:56:49.829Z,99.99
2023-03-08T08:57:49.816Z,99.99
2023-03-08T08:58:49.858Z,99.99
2023-03-08T08:59:49.900Z,99.99
2023-03-08T09:00:49.944Z,99.99
2023-03-08T09:01:50.030Z,99.99
2023-03-08T09:02:50.048Z,99.99
2023-03-08T09:03:50.174Z,99.99
2023-03-08T09:04:50.213Z,99.99
2023-03-08T09:05:50.871Z,99.99
2023-03-08T09:06:50.213Z,99.99
2023-03-08T09:07:50.255Z,99.99
2023-03-08T09:08:50.291Z,99.99
2023-03-08T09:09:50.375Z,99.99
2023-03-08T09:10:50.416Z,99.99
2023-03-08T09:11:55.098Z,99.99
2023-03-08T09:12:50.493Z,99.99
2023-03-08T09:13:50.528Z,99.99
2023-03-08T09:14:50.553Z,99.99
2023-03-08T09:15:50.642Z,99.99
2023-03-08T09:16:50.771Z,99.99
2023-03-08T09:17:50.691Z,99.99
2023-03-08T09:18:50.750Z,99.99
2023-03-08T09:19:50.782Z,99.99
2023-03-08T09:20:50.862Z,99.99
2023-03-08T09:21:50.905Z,99.99
2023-03-08T09:22:51.029Z,99.99
2023-03-08T09:23:50.965Z,99.99
2023-03-08T09:24:51.046Z,99.99
2023-03-08T09:25:51.056Z,99.99
2023-03-08T09:26:51.116Z,99.99
2023-03-08T09:27:51.194Z,99.99
2023-03-08T09:28:51.256Z,99.99
2023-03-08T09:29:51.244Z,99.99
2023-03-08T09:30:51.297Z,99.99
2023-03-08T09:31:51.364Z,99.99
2023-03-08T09:32:51.440Z,99.99
2023-03-08T09:33:51.435Z,99.99
2023-03-08T09:34:51.507Z,99.99
2023-03-08T09:35:51.502Z,99.99
2023-03-08T09:36:52.402Z,99.99
2023-03-08T09:37:51.621Z,99.99
2023-03-08T09:38:51.654Z,99.99
2023-03-08T09:39:51.732Z,99.99
2023-03-08T09:40:51.737Z,99.99
2023-03-08T09:41:51.781Z,99.99
2023-03-08T09:42:51.822Z,99.99
2023-03-08T09:43:51.868Z,99.99
2023-03-08T09:44:51.950Z,99.99
2023-03-08T09:45:52.069Z,99.99
2023-03-08T09:46:52.005Z,99.99
2023-03-08T09:47:52.134Z,99.99
2023-03-08T09:48:52.106Z,99.99
2023-03-08T09:49:52.175Z,99.99
2023-03-08T09:50:52.195Z,99.99
2023-03-08T09:51:52.259Z,99.99
2023-03-08T09:52:52.282Z,99.99
2023-03-08T09:53:52.331Z,99.99
2023-03-08T09:54:52.434Z,99.99
2023-03-08T09:55:52.414Z,99.99
2023-03-08T09:56:52.442Z,99.99
2023-03-08T09:57:52.684Z,99.99
2023-03-08T09:58:52.531Z,99.99
2023-03-08T09:59:52.581Z,99.99
2023-03-08T10:00:52.679Z,99.99
2023-03-08T10:01:52.674Z,99.99
2023-03-08T10:02:52.798Z,99.99
2023-03-08T10:03:52.804Z,99.99
2023-03-08T10:05:06.032Z,99.99
2023-03-08T10:05:52.848Z,99.99
2023-03-08T10:06:52.886Z,99.99
2023-03-08T10:07:52.966Z,99.99
2023-03-08T10:08:52.989Z,99.99
2023-03-08T10:09:53.026Z,99.99
2023-03-08T10:10:53.102Z,99.99
2023-03-08T10:11:53.189Z,99.99
2023-03-08T10:12:53.186Z,99.99
2023-03-08T10:13:53.261Z,99.99
2023-03-08T10:14:53.302Z,99.99
2023-03-08T10:15:53.287Z,99.99
2023-03-08T10:16:53.367Z,99.99
2023-03-08T10:17:53.407Z,99.99
2023-03-08T10:18:53.430Z,99.99
2023-03-08T10:19:53.464Z,99.99
2023-03-08T10:20:53.557Z,99.99
2023-03-08T10:21:53.582Z,99.99
2023-03-08T10:22:53.613Z,99.99
2023-03-08T10:23:53.653Z,99.99
2023-03-08T10:24:53.725Z,99.99
2023-03-08T10:25:53.736Z,99.99
2023-03-08T10:26:53.786Z,99.99
2023-03-08T10:27:53.827Z,99.99
2023-03-08T10:28:53.885Z,99.99
2023-03-08T10:29:53.959Z,99.99
2023-03-08T10:30:54.060Z,99.99
2023-03-08T10:31:54.017Z,99.99
2023-03-08T10:32:56.421Z,99.99
2023-03-08T10:33:54.103Z,99.99
2023-03-08T10:34:54.150Z,99.99
2023-03-08T10:35:54.234Z,99.99
2023-03-08T10:37:00.914Z,99.99
2023-03-08T10:37:54.309Z,99.99
2023-03-08T10:38:54.336Z,99.99
2023-03-08T10:39:54.376Z,99.99
2023-03-08T10:40:54.447Z,99.99
2023-03-08T10:41:54.456Z,99.99
2023-03-08T10:42:54.534Z,99.99
2023-03-08T10:43:54.567Z,99.99
2023-03-08T10:44:54.603Z,99.99
2023-03-08T10:45:54.659Z,99.99
2023-03-08T10:46:54.683Z,99.99
2023-03-08T10:47:54.766Z,99.99
2023-03-08T10:48:54.781Z,99.99
2023-03-08T10:49:54.831Z,99.99
2023-03-08T10:50:54.898Z,99.99
2023-03-08T10:51:54.956Z,99.99
2023-03-08T10:52:55.908Z,99.99
2023-03-08T10:53:55.009Z,99.99
2023-03-08T10:54:55.050Z,99.99
2023-03-08T10:55:57.956Z,99.99
2023-03-08T10:56:57.890Z,99.99
2023-03-08T10:57:55.192Z,99.99
2023-03-08T10:58:55.231Z,99.99
2023-03-08T10:59:55.300Z,99.99
2023-03-08T11:00:55.370Z,99.99
2023-03-08T11:01:55.401Z,99.99
2023-03-08T11:02:55.406Z,99.99
2023-03-08T11:03:55.466Z,99.99
2023-03-08T11:04:55.642Z,99.99
2023-03-08T11:05:55.562Z,99.99
2023-03-08T11:06:55.587Z,99.99
2023-03-08T11:07:55.639Z,99.99
2023-03-08T11:08:55.678Z,99.99
2023-03-08T11:09:55.770Z,99.99
2023-03-08T11:10:55.782Z,99.99
2023-03-08T11:11:55.820Z,99.99
2023-03-08T11:12:55.861Z,99.99
2023-03-08T11:13:55.926Z,99.99
2023-03-08T11:14:56.026Z,99.99
2023-03-08T11:15:56.025Z,99.99
2023-03-08T11:16:56.057Z,99.99
2023-03-08T11:17:56.096Z,99.99
2023-03-08T11:18:56.185Z,99.99
2023-03-08T11:19:56.179Z,99.99
2023-03-08T11:20:56.226Z,99.99
2023-03-08T11:21:56.271Z,99.99
2023-03-08T11:22:56.325Z,99.99
2023-03-08T11:23:56.430Z,99.99
2023-03-08T11:24:56.422Z,99.99
2023-03-08T11:25:56.446Z,99.99
2023-03-08T11:26:56.539Z,99.99
2023-03-08T11:27:56.559Z,99.99
2023-03-08T11:28:56.683Z,99.99
2023-03-08T11:29:56.660Z,99.99
2023-03-08T11:30:56.712Z,99.99
2023-03-08T11:31:56.721Z,99.99
2023-03-08T11:32:56.903Z,99.99
2023-03-08T11:33:56.886Z,99.99
2023-03-08T11:34:56.908Z,99.55
2023-03-08T11:35:56.995Z,99.99
2023-03-08T11:36:56.952Z,99.99
2023-03-08T11:37:56.990Z,99.99
2023-03-08T11:38:57.052Z,99.99
2023-03-08T11:39:57.112Z,99.99
2023-03-08T11:40:57.149Z,99.99
2023-03-08T11:41:57.186Z,99.99
2023-03-08T11:42:57.236Z,99.99
2023-03-08T11:43:57.267Z,99.99
2023-03-08T11:44:57.362Z,99.99
2023-03-08T11:45:57.908Z,99.99
2023-03-08T11:46:57.454Z,99.99
2023-03-08T11:47:57.465Z,99.99
2023-03-08T11:48:57.603Z,99.99
2023-03-08T11:49:57.556Z,99.99
2023-03-08T11:50:57.586Z,99.99
2023-03-08T11:51:57.687Z,99.99
2023-03-08T11:52:57.681Z,99.99
2023-03-08T11:53:57.734Z,99.99
2023-03-08T11:54:57.831Z,99.99
2023-03-08T11:55:57.820Z,99.99
2023-03-08T11:56:57.862Z,99.99
2023-03-08T11:57:57.947Z,99.99
2023-03-08T11:58:57.952Z,99.99
2023-03-08T11:59:58.010Z,99.99
2023-03-08T12:00:58.052Z,99.99
2023-03-08T12:01:58.102Z,99.99
2023-03-08T12:02:58.181Z,99.99
2023-03-08T12:03:58.362Z,99.99
2023-03-08T12:04:58.365Z,99.99
2023-03-08T12:05:58.374Z,99.99
2023-03-08T12:06:58.419Z,99.99
2023-03-08T12:07:58.430Z,99.99
2023-03-08T12:08:58.469Z,99.99
2023-03-08T12:09:58.488Z,99.99
2023-03-08T12:10:58.501Z,99.99
2023-03-08T12:11:58.553Z,99.99
2023-03-08T12:12:58.587Z,99.99
2023-03-08T12:13:58.664Z,99.99
2023-03-08T12:14:58.764Z,99.99
2023-03-08T12:15:58.804Z,99.99
2023-03-08T12:16:58.854Z,99.99
2023-03-08T12:17:58.822Z,99.99
2023-03-08T12:18:58.902Z,99.99
2023-03-08T12:19:58.908Z,99.99
2023-03-08T12:20:58.970Z,99.99
2023-03-08T12:21:59.035Z,99.99
2023-03-08T12:22:59.091Z,99.99
2023-03-08T12:24:00.874Z,99.99
2023-03-08T12:24:59.145Z,99.99
2023-03-08T12:25:59.188Z,99.99
2023-03-08T12:26:59.267Z,99.99
2023-03-08T12:27:59.384Z,99.99
2023-03-08T12:28:59.332Z,99.99
2023-03-08T12:29:59.373Z,99.99
2023-03-08T12:30:59.439Z,99.99
2023-03-08T12:31:59.565Z,99.99
2023-03-08T12:32:59.748Z,99.99
2023-03-08T12:33:59.582Z,99.99
2023-03-08T12:34:59.615Z,99.99
2023-03-08T12:35:59.761Z,99.99
2023-03-08T12:36:59.706Z,99.99
2023-03-08T12:37:59.824Z,99.99
2023-03-08T12:38:59.807Z,99.99
2023-03-08T12:39:59.844Z,99.99
2023-03-08T12:41:00.413Z,99.99
2023-03-08T12:41:59.931Z,99.99
2023-03-08T12:43:00.013Z,99.99
2023-03-08T12:44:00.083Z,99.99
2023-03-08T12:45:00.097Z,99.99
2023-03-08T12:46:00.244Z,99.99
2023-03-08T12:47:03.772Z,99.99
2023-03-08T12:48:00.257Z,99.99
2023-03-08T12:49:00.293Z,99.99
2023-03-08T12:50:00.409Z,99.99
2023-03-08T12:51:00.575Z,99.99
2023-03-08T12:52:00.409Z,99.99
2023-03-08T12:53:00.451Z,99.99
2023-03-08T12:54:00.526Z,99.99
2023-03-08T12:55:00.584Z,99.99
2023-03-08T12:56:00.588Z,99.99
2023-03-08T12:57:00.637Z,99.99
2023-03-08T12:58:00.704Z,99.99
2023-03-08T12:59:00.753Z,99.99
2023-03-08T13:00:00.821Z,99.99
2023-03-08T13:01:00.856Z,99.99
2023-03-08T13:02:00.874Z,99.99
2023-03-08T13:03:00.910Z,99.99
2023-03-08T13:04:01.015Z,99.99
2023-03-08T13:05:01.048Z,99.99